KCIU/CIU METAR and TAF weather

Enter ICAO airport designator
Station Type Date Time Source
KCIU METAR 2021/08/05 03:56 UTC NOAA

KCIU 050356Z AUTO 20004KT 7SM CLR 18/17 A3008 RMK AO2 SLP180 T01830172


Station Type Date Time Source
KCIU Decoded METAR 2021/08/05 03:56 UTC NOAA

Sault Ste Marie, Chippewa County International Airport, MI, United States (KCIU) 46-15N 084-28W
Aug 04, 2021 - 11:56 PM EDT / 2021.08.05 0356 UTC
Wind: from the SSW (200 degrees) at 5 MPH (4 KT):0
Visibility: 7 mile(s):0
Sky conditions: clear
Temperature: 64.9 F (18.3 C)
Dew Point: 63.0 F (17.2 C)
Relative Humidity: 93%
Pressure (altimeter): 30.08 in. Hg (1018 hPa)
ob: KCIU 050356Z AUTO 20004KT 7SM CLR 18/17 A3008 RMK AO2 SLP180 T01830172
cycle: 4

Station Type Date Time Source
KCIU TAF UTC NOAA

Error!

Example: see airport list